sensor_id;sensor_type;location;lat;lon;timestamp;P1;durP1;ratioP1;P2;durP2;ratioP2
13483;SDS011;6814;57.786;12.080;2023-04-07T00:01:06;4.77;;;3.27;;
13483;SDS011;6814;57.786;12.080;2023-04-07T00:03:32;3.40;;;3.10;;
13483;SDS011;6814;57.786;12.080;2023-04-07T00:05:59;5.20;;;3.03;;
13483;SDS011;6814;57.786;12.080;2023-04-07T00:08:26;3.43;;;3.13;;
13483;SDS011;6814;57.786;12.080;2023-04-07T00:10:52;8.43;;;3.57;;
13483;SDS011;6814;57.786;12.080;2023-04-07T00:13:20;5.13;;;3.67;;
13483;SDS011;6814;57.786;12.080;2023-04-07T00:15:46;3.73;;;2.97;;
13483;SDS011;6814;57.786;12.080;2023-04-07T00:18:13;3.67;;;3.03;;
13483;SDS011;6814;57.786;12.080;2023-04-07T00:20:39;3.97;;;3.20;;
13483;SDS011;6814;57.786;12.080;2023-04-07T00:23:06;4.70;;;3.20;;
13483;SDS011;6814;57.786;12.080;2023-04-07T00:25:32;3.73;;;3.20;;
13483;SDS011;6814;57.786;12.080;2023-04-07T00:27:58;3.03;;;2.63;;
13483;SDS011;6814;57.786;12.080;2023-04-07T00:30:26;5.07;;;3.40;;
13483;SDS011;6814;57.786;12.080;2023-04-07T00:32:53;5.80;;;3.10;;
13483;SDS011;6814;57.786;12.080;2023-04-07T00:35:19;3.70;;;3.10;;
13483;SDS011;6814;57.786;12.080;2023-04-07T00:37:45;3.80;;;2.93;;
13483;SDS011;6814;57.786;12.080;2023-04-07T00:40:12;3.83;;;3.03;;
13483;SDS011;6814;57.786;12.080;2023-04-07T00:42:38;4.23;;;2.70;;
13483;SDS011;6814;57.786;12.080;2023-04-07T00:45:05;3.67;;;3.00;;
13483;SDS011;6814;57.786;12.080;2023-04-07T00:47:33;4.30;;;2.60;;
13483;SDS011;6814;57.786;12.080;2023-04-07T00:50:02;4.07;;;3.00;;
13483;SDS011;6814;57.786;12.080;2023-04-07T00:52:28;3.33;;;2.80;;
13483;SDS011;6814;57.786;12.080;2023-04-07T00:54:55;6.40;;;3.10;;
13483;SDS011;6814;57.786;12.080;2023-04-07T00:57:21;4.37;;;2.77;;
13483;SDS011;6814;57.786;12.080;2023-04-07T00:59:47;3.17;;;2.87;;
13483;SDS011;6814;57.786;12.080;2023-04-07T01:02:15;3.93;;;2.93;;
13483;SDS011;6814;57.786;12.080;2023-04-07T01:04:44;6.17;;;3.10;;
13483;SDS011;6814;57.786;12.080;2023-04-07T01:07:16;4.07;;;3.10;;
13483;SDS011;6814;57.786;12.080;2023-04-07T01:09:45;5.50;;;3.03;;
13483;SDS011;6814;57.786;12.080;2023-04-07T01:12:14;3.17;;;2.87;;
13483;SDS011;6814;57.786;12.080;2023-04-07T01:14:45;3.90;;;2.93;;
13483;SDS011;6814;57.786;12.080;2023-04-07T01:17:12;3.83;;;2.97;;
13483;SDS011;6814;57.786;12.080;2023-04-07T01:19:42;3.97;;;3.03;;
13483;SDS011;6814;57.786;12.080;2023-04-07T01:22:13;3.53;;;2.73;;
13483;SDS011;6814;57.786;12.080;2023-04-07T01:24:53;3.77;;;2.60;;
13483;SDS011;6814;57.786;12.080;2023-04-07T01:27:30;3.47;;;2.70;;
13483;SDS011;6814;57.786;12.080;2023-04-07T01:30:01;4.50;;;3.17;;
13483;SDS011;6814;57.786;12.080;2023-04-07T01:32:28;3.40;;;3.10;;
13483;SDS011;6814;57.786;12.080;2023-04-07T01:34:55;5.37;;;3.10;;
13483;SDS011;6814;57.786;12.080;2023-04-07T01:37:22;4.30;;;3.23;;
13483;SDS011;6814;57.786;12.080;2023-04-07T01:39:49;4.40;;;2.87;;
13483;SDS011;6814;57.786;12.080;2023-04-07T01:42:15;3.47;;;2.97;;
13483;SDS011;6814;57.786;12.080;2023-04-07T01:44:43;4.97;;;2.90;;
13483;SDS011;6814;57.786;12.080;2023-04-07T01:47:12;5.17;;;2.90;;
13483;SDS011;6814;57.786;12.080;2023-04-07T01:49:38;3.47;;;2.90;;
13483;SDS011;6814;57.786;12.080;2023-04-07T01:52:06;3.93;;;3.00;;
13483;SDS011;6814;57.786;12.080;2023-04-07T01:54:32;3.80;;;2.73;;
13483;SDS011;6814;57.786;12.080;2023-04-07T01:56:59;4.40;;;3.17;;
13483;SDS011;6814;57.786;12.080;2023-04-07T01:59:26;3.83;;;3.07;;
13483;SDS011;6814;57.786;12.080;2023-04-07T02:01:53;4.70;;;3.13;;
13483;SDS011;6814;57.786;12.080;2023-04-07T02:04:23;5.90;;;3.20;;
13483;SDS011;6814;57.786;12.080;2023-04-07T02:06:51;3.77;;;2.50;;
13483;SDS011;6814;57.786;12.080;2023-04-07T02:09:19;3.73;;;2.80;;
13483;SDS011;6814;57.786;12.080;2023-04-07T02:11:46;5.17;;;3.10;;
13483;SDS011;6814;57.786;12.080;2023-04-07T02:14:13;5.17;;;2.80;;
13483;SDS011;6814;57.786;12.080;2023-04-07T02:16:41;5.93;;;3.70;;
13483;SDS011;6814;57.786;12.080;2023-04-07T02:19:08;5.33;;;3.83;;
13483;SDS011;6814;57.786;12.080;2023-04-07T02:21:36;4.53;;;4.00;;
13483;SDS011;6814;57.786;12.080;2023-04-07T02:24:05;3.73;;;3.27;;
13483;SDS011;6814;57.786;12.080;2023-04-07T02:26:32;4.33;;;3.93;;
13483;SDS011;6814;57.786;12.080;2023-04-07T02:28:59;4.27;;;3.73;;
13483;SDS011;6814;57.786;12.080;2023-04-07T02:31:25;5.50;;;3.97;;
13483;SDS011;6814;57.786;12.080;2023-04-07T02:33:52;4.80;;;3.90;;
13483;SDS011;6814;57.786;12.080;2023-04-07T02:36:18;4.63;;;4.00;;
13483;SDS011;6814;57.786;12.080;2023-04-07T02:38:46;4.70;;;4.10;;
13483;SDS011;6814;57.786;12.080;2023-04-07T02:41:12;4.33;;;3.87;;
13483;SDS011;6814;57.786;12.080;2023-04-07T02:43:39;4.60;;;4.20;;
13483;SDS011;6814;57.786;12.080;2023-04-07T02:46:05;4.63;;;4.13;;
13483;SDS011;6814;57.786;12.080;2023-04-07T02:48:32;6.43;;;4.43;;
13483;SDS011;6814;57.786;12.080;2023-04-07T02:50:58;4.40;;;3.60;;
13483;SDS011;6814;57.786;12.080;2023-04-07T02:53:24;4.67;;;4.10;;
13483;SDS011;6814;57.786;12.080;2023-04-07T02:55:52;5.27;;;4.30;;
13483;SDS011;6814;57.786;12.080;2023-04-07T02:58:18;4.93;;;4.40;;
13483;SDS011;6814;57.786;12.080;2023-04-07T03:00:46;6.07;;;4.53;;
13483;SDS011;6814;57.786;12.080;2023-04-07T03:03:13;4.63;;;3.93;;
13483;SDS011;6814;57.786;12.080;2023-04-07T03:05:39;7.27;;;3.87;;
13483;SDS011;6814;57.786;12.080;2023-04-07T03:08:05;4.83;;;4.30;;
13483;SDS011;6814;57.786;12.080;2023-04-07T03:10:32;5.27;;;4.10;;
13483;SDS011;6814;57.786;12.080;2023-04-07T03:12:59;4.50;;;3.90;;
13483;SDS011;6814;57.786;12.080;2023-04-07T03:15:26;5.60;;;3.70;;
13483;SDS011;6814;57.786;12.080;2023-04-07T03:17:52;6.23;;;3.97;;
13483;SDS011;6814;57.786;12.080;2023-04-07T03:20:19;6.90;;;3.93;;
13483;SDS011;6814;57.786;12.080;2023-04-07T03:22:45;4.50;;;4.10;;
13483;SDS011;6814;57.786;12.080;2023-04-07T03:25:12;4.07;;;3.70;;
13483;SDS011;6814;57.786;12.080;2023-04-07T03:27:38;4.83;;;3.83;;
13483;SDS011;6814;57.786;12.080;2023-04-07T03:30:07;4.73;;;3.90;;
13483;SDS011;6814;57.786;12.080;2023-04-07T03:32:34;6.17;;;4.20;;
13483;SDS011;6814;57.786;12.080;2023-04-07T03:35:00;4.33;;;3.90;;
13483;SDS011;6814;57.786;12.080;2023-04-07T03:37:27;4.37;;;3.97;;
13483;SDS011;6814;57.786;12.080;2023-04-07T03:39:53;5.13;;;4.37;;
13483;SDS011;6814;57.786;12.080;2023-04-07T03:42:20;6.20;;;4.00;;
13483;SDS011;6814;57.786;12.080;2023-04-07T03:44:46;6.03;;;4.07;;
13483;SDS011;6814;57.786;12.080;2023-04-07T03:47:14;4.87;;;4.17;;
13483;SDS011;6814;57.786;12.080;2023-04-07T03:49:40;6.03;;;4.10;;
13483;SDS011;6814;57.786;12.080;2023-04-07T03:52:07;5.60;;;3.80;;
13483;SDS011;6814;57.786;12.080;2023-04-07T03:54:33;6.17;;;4.47;;
13483;SDS011;6814;57.786;12.080;2023-04-07T03:57:00;4.60;;;4.00;;
13483;SDS011;6814;57.786;12.080;2023-04-07T03:59:27;4.23;;;3.83;;
13483;SDS011;6814;57.786;12.080;2023-04-07T04:01:54;4.83;;;3.90;;
13483;SDS011;6814;57.786;12.080;2023-04-07T04:04:21;5.03;;;3.70;;
13483;SDS011;6814;57.786;12.080;2023-04-07T04:06:48;5.43;;;3.93;;
13483;SDS011;6814;57.786;12.080;2023-04-07T04:09:16;8.83;;;4.40;;
13483;SDS011;6814;57.786;12.080;2023-04-07T04:11:42;4.63;;;4.10;;
13483;SDS011;6814;57.786;12.080;2023-04-07T04:14:09;4.93;;;3.83;;
13483;SDS011;6814;57.786;12.080;2023-04-07T04:16:35;6.30;;;3.90;;
13483;SDS011;6814;57.786;12.080;2023-04-07T04:19:02;5.57;;;3.87;;
13483;SDS011;6814;57.786;12.080;2023-04-07T04:21:29;4.73;;;3.73;;
13483;SDS011;6814;57.786;12.080;2023-04-07T04:23:56;4.33;;;3.93;;
13483;SDS011;6814;57.786;12.080;2023-04-07T04:26:23;5.00;;;4.13;;
13483;SDS011;6814;57.786;12.080;2023-04-07T04:28:50;4.47;;;3.93;;
13483;SDS011;6814;57.786;12.080;2023-04-07T04:31:16;5.07;;;4.20;;
13483;SDS011;6814;57.786;12.080;2023-04-07T04:33:43;7.50;;;4.43;;
13483;SDS011;6814;57.786;12.080;2023-04-07T04:36:09;5.40;;;4.13;;
13483;SDS011;6814;57.786;12.080;2023-04-07T04:38:37;4.80;;;4.10;;
13483;SDS011;6814;57.786;12.080;2023-04-07T04:41:03;7.77;;;4.47;;
13483;SDS011;6814;57.786;12.080;2023-04-07T04:43:30;5.33;;;3.97;;
13483;SDS011;6814;57.786;12.080;2023-04-07T04:45:57;4.60;;;4.20;;
13483;SDS011;6814;57.786;12.080;2023-04-07T04:48:23;4.40;;;4.00;;
13483;SDS011;6814;57.786;12.080;2023-04-07T04:50:50;5.33;;;4.13;;
13483;SDS011;6814;57.786;12.080;2023-04-07T04:53:16;5.77;;;4.80;;
13483;SDS011;6814;57.786;12.080;2023-04-07T04:55:44;5.30;;;4.33;;
13483;SDS011;6814;57.786;12.080;2023-04-07T04:58:15;4.60;;;4.20;;
13483;SDS011;6814;57.786;12.080;2023-04-07T05:00:42;5.90;;;4.00;;
13483;SDS011;6814;57.786;12.080;2023-04-07T05:03:08;4.77;;;4.20;;
13483;SDS011;6814;57.786;12.080;2023-04-07T05:05:34;4.20;;;3.80;;
13483;SDS011;6814;57.786;12.080;2023-04-07T05:08:01;4.73;;;4.33;;
13483;SDS011;6814;57.786;12.080;2023-04-07T05:10:27;6.33;;;4.40;;
13483;SDS011;6814;57.786;12.080;2023-04-07T05:12:55;5.17;;;4.30;;
13483;SDS011;6814;57.786;12.080;2023-04-07T05:15:21;6.83;;;4.40;;
13483;SDS011;6814;57.786;12.080;2023-04-07T05:17:48;5.10;;;4.37;;
13483;SDS011;6814;57.786;12.080;2023-04-07T05:20:15;4.57;;;3.80;;
13483;SDS011;6814;57.786;12.080;2023-04-07T05:22:41;6.63;;;4.33;;
13483;SDS011;6814;57.786;12.080;2023-04-07T05:25:08;7.37;;;3.93;;
13483;SDS011;6814;57.786;12.080;2023-04-07T05:27:34;4.60;;;3.93;;
13483;SDS011;6814;57.786;12.080;2023-04-07T05:30:02;6.70;;;4.23;;
13483;SDS011;6814;57.786;12.080;2023-04-07T05:32:29;7.27;;;4.17;;
13483;SDS011;6814;57.786;12.080;2023-04-07T05:34:55;5.50;;;3.90;;
13483;SDS011;6814;57.786;12.080;2023-04-07T05:37:22;5.17;;;4.03;;
13483;SDS011;6814;57.786;12.080;2023-04-07T05:39:48;4.60;;;4.03;;
13483;SDS011;6814;57.786;12.080;2023-04-07T05:42:15;4.53;;;4.10;;
13483;SDS011;6814;57.786;12.080;2023-04-07T05:44:41;4.60;;;4.20;;
13483;SDS011;6814;57.786;12.080;2023-04-07T05:47:09;7.87;;;4.20;;
13483;SDS011;6814;57.786;12.080;2023-04-07T05:49:36;4.03;;;3.70;;
13483;SDS011;6814;57.786;12.080;2023-04-07T05:52:04;4.03;;;3.63;;
13483;SDS011;6814;57.786;12.080;2023-04-07T05:54:31;4.73;;;3.67;;
13483;SDS011;6814;57.786;12.080;2023-04-07T05:56:57;5.13;;;4.00;;
13483;SDS011;6814;57.786;12.080;2023-04-07T05:59:23;5.17;;;3.70;;
13483;SDS011;6814;57.786;12.080;2023-04-07T06:01:50;6.47;;;4.07;;
13483;SDS011;6814;57.786;12.080;2023-04-07T06:04:18;4.43;;;4.03;;
13483;SDS011;6814;57.786;12.080;2023-04-07T06:06:44;4.73;;;3.93;;
13483;SDS011;6814;57.786;12.080;2023-04-07T06:09:11;4.10;;;3.60;;
13483;SDS011;6814;57.786;12.080;2023-04-07T06:11:37;6.80;;;3.77;;
13483;SDS011;6814;57.786;12.080;2023-04-07T06:14:04;4.17;;;3.67;;
13483;SDS011;6814;57.786;12.080;2023-04-07T06:16:30;4.87;;;3.50;;
13483;SDS011;6814;57.786;12.080;2023-04-07T06:18:56;5.33;;;3.50;;
13483;SDS011;6814;57.786;12.080;2023-04-07T06:21:24;5.30;;;3.63;;
13483;SDS011;6814;57.786;12.080;2023-04-07T06:23:51;6.27;;;3.80;;
13483;SDS011;6814;57.786;12.080;2023-04-07T06:26:17;3.43;;;3.13;;
13483;SDS011;6814;57.786;12.080;2023-04-07T06:28:45;4.37;;;3.13;;
13483;SDS011;6814;57.786;12.080;2023-04-07T06:31:12;4.83;;;3.00;;
13483;SDS011;6814;57.786;12.080;2023-04-07T06:33:38;3.30;;;3.00;;
13483;SDS011;6814;57.786;12.080;2023-04-07T06:36:05;4.40;;;2.63;;
13483;SDS011;6814;57.786;12.080;2023-04-07T06:38:33;5.77;;;2.73;;
13483;SDS011;6814;57.786;12.080;2023-04-07T06:40:59;3.43;;;3.07;;
13483;SDS011;6814;57.786;12.080;2023-04-07T06:43:26;3.60;;;2.60;;
13483;SDS011;6814;57.786;12.080;2023-04-07T06:45:52;4.87;;;2.83;;
13483;SDS011;6814;57.786;12.080;2023-04-07T06:48:18;3.27;;;2.67;;
13483;SDS011;6814;57.786;12.080;2023-04-07T06:50:45;2.73;;;2.53;;
13483;SDS011;6814;57.786;12.080;2023-04-07T06:53:12;4.43;;;2.93;;
13483;SDS011;6814;57.786;12.080;2023-04-07T06:55:39;4.77;;;2.83;;
13483;SDS011;6814;57.786;12.080;2023-04-07T06:58:06;5.67;;;3.20;;
13483;SDS011;6814;57.786;12.080;2023-04-07T07:00:32;3.10;;;2.67;;
13483;SDS011;6814;57.786;12.080;2023-04-07T07:03:00;3.33;;;2.90;;
13483;SDS011;6814;57.786;12.080;2023-04-07T07:05:26;3.90;;;2.60;;
13483;SDS011;6814;57.786;12.080;2023-04-07T07:07:53;3.57;;;2.70;;
13483;SDS011;6814;57.786;12.080;2023-04-07T07:10:19;3.70;;;2.63;;
13483;SDS011;6814;57.786;12.080;2023-04-07T07:12:48;4.03;;;3.13;;
13483;SDS011;6814;57.786;12.080;2023-04-07T07:15:14;3.70;;;2.83;;
13483;SDS011;6814;57.786;12.080;2023-04-07T07:17:41;3.30;;;3.00;;
13483;SDS011;6814;57.786;12.080;2023-04-07T07:20:08;4.23;;;3.17;;
13483;SDS011;6814;57.786;12.080;2023-04-07T07:22:36;4.43;;;2.53;;
13483;SDS011;6814;57.786;12.080;2023-04-07T07:25:03;4.07;;;2.60;;
13483;SDS011;6814;57.786;12.080;2023-04-07T07:27:30;2.97;;;2.67;;
13483;SDS011;6814;57.786;12.080;2023-04-07T07:29:58;3.57;;;2.70;;
13483;SDS011;6814;57.786;12.080;2023-04-07T07:32:24;4.23;;;2.70;;
13483;SDS011;6814;57.786;12.080;2023-04-07T07:34:51;3.13;;;2.67;;
13483;SDS011;6814;57.786;12.080;2023-04-07T07:37:17;2.43;;;2.20;;
13483;SDS011;6814;57.786;12.080;2023-04-07T07:39:43;3.47;;;2.23;;
13483;SDS011;6814;57.786;12.080;2023-04-07T07:42:10;2.60;;;2.40;;
13483;SDS011;6814;57.786;12.080;2023-04-07T07:44:37;2.97;;;2.63;;
13483;SDS011;6814;57.786;12.080;2023-04-07T07:47:04;3.50;;;2.37;;
13483;SDS011;6814;57.786;12.080;2023-04-07T07:49:31;4.40;;;2.73;;
13483;SDS011;6814;57.786;12.080;2023-04-07T07:51:57;2.90;;;2.60;;
13483;SDS011;6814;57.786;12.080;2023-04-07T07:54:25;2.90;;;2.60;;
13483;SDS011;6814;57.786;12.080;2023-04-07T07:56:51;3.30;;;2.20;;
13483;SDS011;6814;57.786;12.080;2023-04-07T07:59:17;3.20;;;2.47;;
13483;SDS011;6814;57.786;12.080;2023-04-07T08:01:44;5.57;;;2.53;;
13483;SDS011;6814;57.786;12.080;2023-04-07T08:04:11;4.70;;;2.40;;
13483;SDS011;6814;57.786;12.080;2023-04-07T08:06:38;3.63;;;2.47;;
13483;SDS011;6814;57.786;12.080;2023-04-07T08:09:04;2.70;;;2.30;;
13483;SDS011;6814;57.786;12.080;2023-04-07T08:11:31;3.77;;;2.60;;
13483;SDS011;6814;57.786;12.080;2023-04-07T08:13:57;3.33;;;2.10;;
13483;SDS011;6814;57.786;12.080;2023-04-07T08:16:24;2.50;;;2.30;;
13483;SDS011;6814;57.786;12.080;2023-04-07T08:18:50;3.00;;;2.10;;
13483;SDS011;6814;57.786;12.080;2023-04-07T08:21:18;2.40;;;2.07;;
13483;SDS011;6814;57.786;12.080;2023-04-07T08:23:45;2.80;;;2.20;;
13483;SDS011;6814;57.786;12.080;2023-04-07T08:26:11;3.63;;;2.40;;
13483;SDS011;6814;57.786;12.080;2023-04-07T08:28:37;3.03;;;2.13;;
13483;SDS011;6814;57.786;12.080;2023-04-07T08:31:04;3.87;;;1.70;;
13483;SDS011;6814;57.786;12.080;2023-04-07T08:33:31;3.30;;;1.90;;
13483;SDS011;6814;57.786;12.080;2023-04-07T08:35:57;3.40;;;2.10;;
13483;SDS011;6814;57.786;12.080;2023-04-07T08:38:25;1.97;;;1.77;;
13483;SDS011;6814;57.786;12.080;2023-04-07T08:40:53;3.03;;;1.80;;
13483;SDS011;6814;57.786;12.080;2023-04-07T08:43:20;2.57;;;2.00;;
13483;SDS011;6814;57.786;12.080;2023-04-07T08:45:47;4.30;;;2.27;;
13483;SDS011;6814;57.786;12.080;2023-04-07T08:48:15;3.90;;;2.33;;
13483;SDS011;6814;57.786;12.080;2023-04-07T08:50:43;3.00;;;2.20;;
13483;SDS011;6814;57.786;12.080;2023-04-07T08:53:10;2.50;;;2.17;;
13483;SDS011;6814;57.786;12.080;2023-04-07T08:55:39;3.10;;;2.10;;
13483;SDS011;6814;57.786;12.080;2023-04-07T08:58:06;2.73;;;2.10;;
13483;SDS011;6814;57.786;12.080;2023-04-07T09:00:36;3.00;;;2.37;;
13483;SDS011;6814;57.786;12.080;2023-04-07T09:03:03;3.73;;;2.07;;
13483;SDS011;6814;57.786;12.080;2023-04-07T09:05:30;2.20;;;2.00;;
13483;SDS011;6814;57.786;12.080;2023-04-07T09:07:57;3.80;;;2.20;;
13483;SDS011;6814;57.786;12.080;2023-04-07T09:10:23;2.80;;;1.67;;
13483;SDS011;6814;57.786;12.080;2023-04-07T09:12:51;2.47;;;1.90;;
13483;SDS011;6814;57.786;12.080;2023-04-07T09:15:17;4.27;;;1.57;;
13483;SDS011;6814;57.786;12.080;2023-04-07T09:17:44;3.00;;;1.90;;
13483;SDS011;6814;57.786;12.080;2023-04-07T09:20:11;3.70;;;1.63;;
13483;SDS011;6814;57.786;12.080;2023-04-07T09:22:37;6.97;;;1.80;;
13483;SDS011;6814;57.786;12.080;2023-04-07T09:25:14;2.23;;;1.60;;
13483;SDS011;6814;57.786;12.080;2023-04-07T09:27:40;1.70;;;1.53;;
13483;SDS011;6814;57.786;12.080;2023-04-07T09:30:20;2.43;;;1.53;;
13483;SDS011;6814;57.786;12.080;2023-04-07T09:32:46;1.67;;;1.57;;
13483;SDS011;6814;57.786;12.080;2023-04-07T09:35:13;1.70;;;1.60;;
13483;SDS011;6814;57.786;12.080;2023-04-07T09:37:39;2.03;;;1.77;;
13483;SDS011;6814;57.786;12.080;2023-04-07T09:40:07;1.97;;;1.80;;
13483;SDS011;6814;57.786;12.080;2023-04-07T09:42:33;2.40;;;1.50;;
13483;SDS011;6814;57.786;12.080;2023-04-07T09:45:02;1.43;;;1.30;;
13483;SDS011;6814;57.786;12.080;2023-04-07T09:47:30;2.10;;;1.50;;
13483;SDS011;6814;57.786;12.080;2023-04-07T09:49:57;1.67;;;1.30;;
13483;SDS011;6814;57.786;12.080;2023-04-07T09:55:12;1.57;;;1.33;;
13483;SDS011;6814;57.786;12.080;2023-04-07T09:57:38;2.63;;;1.37;;
13483;SDS011;6814;57.786;12.080;2023-04-07T10:00:06;1.50;;;1.40;;
13483;SDS011;6814;57.786;12.080;2023-04-07T10:02:34;3.63;;;1.27;;
13483;SDS011;6814;57.786;12.080;2023-04-07T10:05:01;1.57;;;1.17;;
13483;SDS011;6814;57.786;12.080;2023-04-07T10:07:28;1.50;;;1.40;;
13483;SDS011;6814;57.786;12.080;2023-04-07T10:09:54;1.10;;;1.00;;
13483;SDS011;6814;57.786;12.080;2023-04-07T10:12:22;1.47;;;1.20;;
13483;SDS011;6814;57.786;12.080;2023-04-07T10:14:49;1.33;;;1.07;;
13483;SDS011;6814;57.786;12.080;2023-04-07T10:17:15;1.30;;;1.10;;
13483;SDS011;6814;57.786;12.080;2023-04-07T10:19:46;2.00;;;1.20;;
13483;SDS011;6814;57.786;12.080;2023-04-07T10:22:14;1.53;;;1.37;;
13483;SDS011;6814;57.786;12.080;2023-04-07T10:24:43;1.30;;;1.20;;
13483;SDS011;6814;57.786;12.080;2023-04-07T10:27:13;1.33;;;1.23;;
13483;SDS011;6814;57.786;12.080;2023-04-07T10:29:40;1.17;;;1.10;;
13483;SDS011;6814;57.786;12.080;2023-04-07T10:32:07;1.23;;;1.23;;
13483;SDS011;6814;57.786;12.080;2023-04-07T10:37:20;1.73;;;1.00;;
13483;SDS011;6814;57.786;12.080;2023-04-07T10:39:48;1.30;;;1.20;;
13483;SDS011;6814;57.786;12.080;2023-04-07T10:44:56;1.23;;;1.13;;
13483;SDS011;6814;57.786;12.080;2023-04-07T10:47:24;1.70;;;1.30;;
13483;SDS011;6814;57.786;12.080;2023-04-07T10:52:37;1.00;;;0.90;;
13483;SDS011;6814;57.786;12.080;2023-04-07T11:00:36;1.27;;;1.17;;
13483;SDS011;6814;57.786;12.080;2023-04-07T11:03:08;1.53;;;0.90;;
13483;SDS011;6814;57.786;12.080;2023-04-07T11:05:35;1.30;;;1.20;;
13483;SDS011;6814;57.786;12.080;2023-04-07T11:08:04;0.80;;;0.80;;
13483;SDS011;6814;57.786;12.080;2023-04-07T11:10:30;2.00;;;1.00;;
13483;SDS011;6814;57.786;12.080;2023-04-07T11:13:01;1.30;;;0.90;;
13483;SDS011;6814;57.786;12.080;2023-04-07T11:15:27;1.00;;;0.90;;
13483;SDS011;6814;57.786;12.080;2023-04-07T11:18:10;1.00;;;0.90;;
13483;SDS011;6814;57.786;12.080;2023-04-07T11:20:40;0.90;;;0.90;;
13483;SDS011;6814;57.786;12.080;2023-04-07T11:23:08;1.13;;;1.03;;
13483;SDS011;6814;57.786;12.080;2023-04-07T11:25:35;1.07;;;0.97;;
13483;SDS011;6814;57.786;12.080;2023-04-07T11:28:02;1.70;;;1.00;;
13483;SDS011;6814;57.786;12.080;2023-04-07T11:30:29;2.07;;;1.00;;
13483;SDS011;6814;57.786;12.080;2023-04-07T11:32:55;0.90;;;0.90;;
13483;SDS011;6814;57.786;12.080;2023-04-07T11:35:22;1.10;;;1.00;;
13483;SDS011;6814;57.786;12.080;2023-04-07T11:37:49;1.20;;;1.20;;
13483;SDS011;6814;57.786;12.080;2023-04-07T11:40:31;1.10;;;1.10;;
13483;SDS011;6814;57.786;12.080;2023-04-07T11:42:58;1.20;;;1.10;;
13483;SDS011;6814;57.786;12.080;2023-04-07T11:45:25;2.53;;;1.00;;
13483;SDS011;6814;57.786;12.080;2023-04-07T11:47:51;1.00;;;1.00;;
13483;SDS011;6814;57.786;12.080;2023-04-07T11:52:59;3.13;;;1.10;;
13483;SDS011;6814;57.786;12.080;2023-04-07T11:55:25;1.30;;;1.20;;
13483;SDS011;6814;57.786;12.080;2023-04-07T11:57:55;1.20;;;1.20;;
13483;SDS011;6814;57.786;12.080;2023-04-07T12:00:30;1.00;;;1.00;;
13483;SDS011;6814;57.786;12.080;2023-04-07T12:02:56;1.60;;;1.13;;
13483;SDS011;6814;57.786;12.080;2023-04-07T12:05:23;0.90;;;0.90;;
13483;SDS011;6814;57.786;12.080;2023-04-07T12:07:52;2.10;;;1.20;;
13483;SDS011;6814;57.786;12.080;2023-04-07T12:10:19;1.00;;;1.00;;
13483;SDS011;6814;57.786;12.080;2023-04-07T12:12:46;4.00;;;1.30;;
13483;SDS011;6814;57.786;12.080;2023-04-07T12:15:14;1.60;;;1.10;;
13483;SDS011;6814;57.786;12.080;2023-04-07T12:17:43;1.67;;;0.97;;
13483;SDS011;6814;57.786;12.080;2023-04-07T12:20:10;0.90;;;0.90;;
13483;SDS011;6814;57.786;12.080;2023-04-07T12:22:37;1.13;;;1.00;;
13483;SDS011;6814;57.786;12.080;2023-04-07T12:25:03;1.10;;;1.10;;
13483;SDS011;6814;57.786;12.080;2023-04-07T12:27:30;1.83;;;1.10;;
13483;SDS011;6814;57.786;12.080;2023-04-07T12:29:56;0.93;;;0.93;;
13483;SDS011;6814;57.786;12.080;2023-04-07T12:32:24;0.80;;;0.80;;
13483;SDS011;6814;57.786;12.080;2023-04-07T12:34:50;1.70;;;1.20;;
13483;SDS011;6814;57.786;12.080;2023-04-07T12:37:17;1.23;;;1.07;;
13483;SDS011;6814;57.786;12.080;2023-04-07T12:39:43;1.77;;;1.00;;
13483;SDS011;6814;57.786;12.080;2023-04-07T12:42:10;1.97;;;1.20;;
13483;SDS011;6814;57.786;12.080;2023-04-07T12:44:36;1.87;;;0.90;;
13483;SDS011;6814;57.786;12.080;2023-04-07T12:47:03;0.93;;;0.93;;
13483;SDS011;6814;57.786;12.080;2023-04-07T12:49:31;1.10;;;1.00;;
13483;SDS011;6814;57.786;12.080;2023-04-07T12:51:57;1.00;;;1.00;;
13483;SDS011;6814;57.786;12.080;2023-04-07T12:54:24;1.30;;;1.17;;
13483;SDS011;6814;57.786;12.080;2023-04-07T12:56:50;1.70;;;1.00;;
13483;SDS011;6814;57.786;12.080;2023-04-07T12:59:17;1.20;;;1.10;;
13483;SDS011;6814;57.786;12.080;2023-04-07T13:01:43;1.10;;;1.00;;
13483;SDS011;6814;57.786;12.080;2023-04-07T13:04:10;1.77;;;1.00;;
13483;SDS011;6814;57.786;12.080;2023-04-07T13:06:38;1.50;;;1.20;;
13483;SDS011;6814;57.786;12.080;2023-04-07T13:09:04;1.00;;;1.00;;
13483;SDS011;6814;57.786;12.080;2023-04-07T13:11:31;1.00;;;1.00;;
13483;SDS011;6814;57.786;12.080;2023-04-07T13:13:57;1.67;;;1.20;;
13483;SDS011;6814;57.786;12.080;2023-04-07T13:16:23;3.20;;;1.13;;
13483;SDS011;6814;57.786;12.080;2023-04-07T13:18:50;1.20;;;1.10;;
13483;SDS011;6814;57.786;12.080;2023-04-07T13:21:16;1.30;;;1.20;;
13483;SDS011;6814;57.786;12.080;2023-04-07T13:23:44;1.20;;;1.10;;
13483;SDS011;6814;57.786;12.080;2023-04-07T13:26:10;1.20;;;1.10;;
13483;SDS011;6814;57.786;12.080;2023-04-07T13:28:37;1.00;;;1.00;;
13483;SDS011;6814;57.786;12.080;2023-04-07T13:31:03;1.43;;;1.20;;
13483;SDS011;6814;57.786;12.080;2023-04-07T13:33:30;1.20;;;1.10;;
13483;SDS011;6814;57.786;12.080;2023-04-07T13:35:56;1.30;;;1.20;;
13483;SDS011;6814;57.786;12.080;2023-04-07T13:38:23;1.00;;;1.00;;
13483;SDS011;6814;57.786;12.080;2023-04-07T13:40:50;1.77;;;1.00;;
13483;SDS011;6814;57.786;12.080;2023-04-07T13:43:17;2.10;;;1.00;;
13483;SDS011;6814;57.786;12.080;2023-04-07T13:45:44;3.20;;;1.00;;
13483;SDS011;6814;57.786;12.080;2023-04-07T13:48:10;2.07;;;1.23;;
13483;SDS011;6814;57.786;12.080;2023-04-07T13:50:37;1.50;;;1.20;;
13483;SDS011;6814;57.786;12.080;2023-04-07T13:53:04;1.20;;;1.10;;
13483;SDS011;6814;57.786;12.080;2023-04-07T13:55:30;1.27;;;1.17;;
13483;SDS011;6814;57.786;12.080;2023-04-07T13:57:58;1.53;;;1.30;;
13483;SDS011;6814;57.786;12.080;2023-04-07T14:00:25;1.33;;;1.20;;
13483;SDS011;6814;57.786;12.080;2023-04-07T14:02:51;1.70;;;1.10;;
13483;SDS011;6814;57.786;12.080;2023-04-07T14:05:19;3.80;;;1.40;;
13483;SDS011;6814;57.786;12.080;2023-04-07T14:07:46;1.13;;;1.13;;
13483;SDS011;6814;57.786;12.080;2023-04-07T14:10:13;1.33;;;1.23;;
13483;SDS011;6814;57.786;12.080;2023-04-07T14:12:40;1.17;;;1.10;;
13483;SDS011;6814;57.786;12.080;2023-04-07T14:15:08;0.97;;;0.97;;
13483;SDS011;6814;57.786;12.080;2023-04-07T14:17:35;1.17;;;1.17;;
13483;SDS011;6814;57.786;12.080;2023-04-07T14:20:02;1.23;;;1.13;;
13483;SDS011;6814;57.786;12.080;2023-04-07T14:22:28;1.23;;;1.13;;
13483;SDS011;6814;57.786;12.080;2023-04-07T14:24:55;1.70;;;1.10;;
13483;SDS011;6814;57.786;12.080;2023-04-07T14:27:22;1.17;;;0.97;;
13483;SDS011;6814;57.786;12.080;2023-04-07T14:29:48;0.90;;;0.80;;
13483;SDS011;6814;57.786;12.080;2023-04-07T14:32:16;1.33;;;1.00;;
13483;SDS011;6814;57.786;12.080;2023-04-07T14:34:42;1.20;;;1.10;;
13483;SDS011;6814;57.786;12.080;2023-04-07T14:37:09;0.80;;;0.70;;
13483;SDS011;6814;57.786;12.080;2023-04-07T14:39:38;0.90;;;0.90;;
13483;SDS011;6814;57.786;12.080;2023-04-07T14:42:05;1.10;;;1.00;;
13483;SDS011;6814;57.786;12.080;2023-04-07T14:44:31;0.70;;;0.60;;
13483;SDS011;6814;57.786;12.080;2023-04-07T14:46:58;0.90;;;0.90;;
13483;SDS011;6814;57.786;12.080;2023-04-07T14:49:26;0.80;;;0.80;;
13483;SDS011;6814;57.786;12.080;2023-04-07T14:51:53;0.67;;;0.67;;
13483;SDS011;6814;57.786;12.080;2023-04-07T14:54:19;0.67;;;0.67;;
13483;SDS011;6814;57.786;12.080;2023-04-07T14:56:47;0.70;;;0.70;;
13483;SDS011;6814;57.786;12.080;2023-04-07T14:59:13;1.70;;;0.77;;
13483;SDS011;6814;57.786;12.080;2023-04-07T15:01:40;0.93;;;0.60;;
13483;SDS011;6814;57.786;12.080;2023-04-07T15:04:06;0.70;;;0.70;;
13483;SDS011;6814;57.786;12.080;2023-04-07T15:06:34;0.80;;;0.80;;